Time;durP1;ratioP1;P1;durP2;ratioP2;P2;SDS_P1;SDS_P2;PMS_P1;PMS_P2;Temp;Humidity;BMP_temperature;BMP_pressure;BME280_temperature;BME280_humidity;BME280_pressure;Samples;Min_cycle;Max_cycle;Signal;HPM_P1;HPM_P2
2022/05/13 00:01:57;;;;;;;1.27;0.80;;;13.10;89.70;;;;;;5095057;28;20102;-41
2022/05/13 00:04:22;;;;;;;1.38;0.70;;;13.10;89.90;;;;;;5088035;28;20139;-40
2022/05/13 00:06:48;;;;;;;2.42;1.02;;;13.00;89.90;;;;;;5092781;28;20088;-41
2022/05/13 00:09:14;;;;;;;3.92;1.10;;;13.00;90.00;;;;;;5091122;28;20052;-41
2022/05/13 00:11:39;;;;;;;1.50;0.90;;;13.00;90.10;;;;;;5089992;28;20019;-40
2022/05/13 00:14:07;;;;;;;2.17;0.98;;;13.00;90.20;;;;;;5093047;28;20133;-41
2022/05/13 00:16:36;;;;;;;2.78;0.90;;;13.00;90.30;;;;;;5086892;28;20027;-41
2022/05/13 00:19:04;;;;;;;2.03;0.90;;;12.90;90.30;;;;;;5095894;28;20300;-40
2022/05/13 00:21:30;;;;;;;2.67;0.95;;;12.90;90.40;;;;;;5085694;28;20016;-40
2022/05/13 00:23:55;;;;;;;1.58;0.98;;;12.90;90.40;;;;;;5097135;28;20038;-42
2022/05/13 00:26:21;;;;;;;3.50;1.20;;;12.80;90.50;;;;;;5086534;28;20051;-39
2022/05/13 00:28:46;;;;;;;3.67;1.10;;;12.80;90.50;;;;;;5099487;28;20024;-39
2022/05/13 00:31:12;;;;;;;2.40;1.20;;;12.80;90.60;;;;;;5089238;28;20028;-42
2022/05/13 00:33:38;;;;;;;3.65;1.10;;;12.70;90.70;;;;;;5101072;28;20497;-42
2022/05/13 00:36:04;;;;;;;2.13;1.00;;;12.70;90.70;;;;;;5088994;28;20027;-42
2022/05/13 00:38:30;;;;;;;2.30;1.20;;;12.60;90.80;;;;;;5101021;28;20039;-42
2022/05/13 00:40:56;;;;;;;2.33;1.10;;;12.60;90.90;;;;;;5069502;28;20043;-41
2022/05/13 00:43:38;;;;;;;3.80;1.05;;;12.60;91.00;;;;;;5092334;28;20098;-41
2022/05/13 00:46:04;;;;;;;3.85;1.15;;;12.50;91.10;;;;;;5089543;28;20032;-41
2022/05/13 00:48:30;;;;;;;1.85;0.98;;;12.50;91.10;;;;;;5098420;28;20369;-42
2022/05/13 00:50:55;;;;;;;4.22;1.05;;;12.50;91.20;;;;;;5091377;28;20036;-40
2022/05/13 00:53:22;;;;;;;4.30;1.35;;;12.50;91.30;;;;;;5095618;28;20066;-41
2022/05/13 00:55:47;;;;;;;6.75;1.35;;;12.40;91.40;;;;;;5093290;28;20035;-43
2022/05/13 00:58:17;;;;;;;2.80;1.23;;;12.40;91.50;;;;;;5092783;28;20020;-43
2022/05/13 01:00:43;;;;;;;2.30;1.20;;;12.30;91.60;;;;;;5096665;28;20020;-38
2022/05/13 01:03:11;;;;;;;3.90;1.17;;;12.40;91.60;;;;;;5090080;28;20048;-39
2022/05/13 01:05:40;;;;;;;4.40;1.20;;;12.30;91.80;;;;;;5102832;28;20030;-41
2022/05/13 01:08:07;;;;;;;1.50;1.00;;;12.30;91.80;;;;;;5107764;28;20042;-41
2022/05/13 01:10:35;;;;;;;3.03;1.17;;;12.30;91.90;;;;;;5096595;28;20023;-39
2022/05/13 01:13:06;;;;;;;3.70;1.17;;;12.30;92.00;;;;;;5107660;28;20023;-42
2022/05/13 01:15:34;;;;;;;3.90;1.15;;;12.30;92.00;;;;;;5097453;28;20383;-41
2022/05/13 01:18:06;;;;;;;3.25;1.10;;;12.20;92.10;;;;;;5107440;28;20023;-42
2022/05/13 01:20:47;;;;;;;3.20;1.38;;;12.20;92.20;;;;;;5095754;28;20179;-41
2022/05/13 01:23:19;;;;;;;5.82;1.70;;;12.20;92.30;;;;;;5089063;28;20123;-41
2022/05/13 01:25:48;;;;;;;1.92;1.23;;;12.10;92.30;;;;;;5095319;28;20016;-39
2022/05/13 01:28:17;;;;;;;3.40;1.30;;;12.10;92.30;;;;;;5087713;28;20028;-42
2022/05/13 01:30:46;;;;;;;6.13;1.42;;;12.10;92.40;;;;;;5094724;28;20312;-41
2022/05/13 01:33:13;;;;;;;4.35;1.17;;;12.10;92.40;;;;;;5107697;28;20030;-41
2022/05/13 01:35:40;;;;;;;3.45;1.20;;;12.10;92.40;;;;;;5094980;28;20079;-41
2022/05/13 01:38:07;;;;;;;6.80;1.48;;;12.10;92.50;;;;;;5107203;28;20027;-40
2022/05/13 01:40:33;;;;;;;4.55;1.40;;;12.00;92.50;;;;;;5094560;28;20103;-40
2022/05/13 01:42:58;;;;;;;3.75;1.50;;;12.00;92.60;;;;;;5108226;28;20028;-41
2022/05/13 01:45:24;;;;;;;3.40;1.20;;;12.00;92.60;;;;;;5097622;28;20082;-41
2022/05/13 01:47:49;;;;;;;2.40;1.20;;;12.00;92.70;;;;;;5105133;28;20032;-40
2022/05/13 01:50:15;;;;;;;3.65;1.20;;;12.00;92.80;;;;;;5100732;28;20383;-41
2022/05/13 01:52:41;;;;;;;2.45;1.20;;;12.00;92.80;;;;;;5101117;28;20099;-42
2022/05/13 01:55:07;;;;;;;4.60;1.15;;;12.10;92.80;;;;;;5103608;28;20058;-41
2022/05/13 01:57:32;;;;;;;4.38;1.30;;;12.10;92.80;;;;;;5098876;28;20026;-41
2022/05/13 01:59:58;;;;;;;4.18;1.05;;;12.10;92.80;;;;;;5105638;28;20042;-42
2022/05/13 02:02:23;;;;;;;4.43;1.40;;;12.10;92.80;;;;;;5096239;28;20129;-45
2022/05/13 02:04:49;;;;;;;3.50;1.30;;;12.10;92.90;;;;;;5106079;28;20070;-42
2022/05/13 02:07:14;;;;;;;3.30;1.10;;;12.10;92.90;;;;;;5105896;28;20024;-42
2022/05/13 02:09:40;;;;;;;2.05;1.25;;;12.10;92.90;;;;;;5104227;28;20050;-42
2022/05/13 02:12:06;;;;;;;4.35;1.27;;;12.10;92.90;;;;;;5100482;28;20468;-40
2022/05/13 02:14:32;;;;;;;2.65;1.15;;;12.10;93.00;;;;;;5085952;28;20060;-40
2022/05/13 02:16:57;;;;;;;3.63;1.15;;;12.10;93.00;;;;;;5099637;28;20056;-41
2022/05/13 02:19:23;;;;;;;3.15;1.15;;;12.20;93.10;;;;;;5086821;28;20028;-41
2022/05/13 02:21:48;;;;;;;2.05;1.08;;;12.20;93.10;;;;;;5097255;28;20019;-41
2022/05/13 02:24:14;;;;;;;1.52;1.00;;;12.20;93.20;;;;;;5087979;28;20036;-42
2022/05/13 02:26:39;;;;;;;4.15;1.35;;;12.20;93.20;;;;;;5095358;28;20591;-42
2022/05/13 02:29:06;;;;;;;2.58;1.20;;;12.20;93.30;;;;;;5090389;28;20036;-41
2022/05/13 02:31:32;;;;;;;1.95;1.13;;;12.20;93.30;;;;;;5092130;28;20032;-42
2022/05/13 02:33:58;;;;;;;2.53;1.17;;;12.20;93.40;;;;;;5093412;28;20036;-41
2022/05/13 02:36:24;;;;;;;4.18;1.52;;;12.30;93.50;;;;;;5089122;28;20016;-42
2022/05/13 02:38:50;;;;;;;3.35;1.30;;;12.30;93.50;;;;;;5095840;28;20044;-42
2022/05/13 02:41:15;;;;;;;5.25;1.40;;;12.30;93.50;;;;;;5086692;28;20016;-42
2022/05/13 02:43:53;;;;;;;3.22;1.35;;;12.30;93.60;;;;;;5097975;28;20447;-41
2022/05/13 02:46:28;;;;;;;3.15;1.10;;;12.30;93.60;;;;;;5087642;28;20370;-40
2022/05/13 02:48:54;;;;;;;4.28;1.63;;;12.30;93.60;;;;;;5097480;28;20024;-41
2022/05/13 02:51:20;;;;;;;3.58;1.30;;;12.30;93.70;;;;;;5087577;28;20012;-42
2022/05/13 02:53:46;;;;;;;4.82;1.60;;;12.30;93.80;;;;;;5097585;28;20028;-42
2022/05/13 02:56:12;;;;;;;2.40;1.17;;;12.30;93.90;;;;;;5086239;28;20028;-40
2022/05/13 02:58:39;;;;;;;4.22;1.50;;;12.40;93.90;;;;;;5098834;28;20436;-42
2022/05/13 03:01:06;;;;;;;5.10;1.35;;;12.40;94.20;;;;;;5086250;28;20028;-42
2022/05/13 03:03:32;;;;;;;4.47;1.60;;;12.40;94.00;;;;;;5097403;28;20496;-42
2022/05/13 03:05:59;;;;;;;3.97;1.70;;;12.40;94.00;;;;;;5092128;28;20043;-40
2022/05/13 03:08:25;;;;;;;6.40;1.85;;;12.40;94.10;;;;;;5094291;28;20020;-42
2022/05/13 03:10:50;;;;;;;5.00;1.48;;;12.40;94.10;;;;;;5104968;28;20391;-43
2022/05/13 03:13:19;;;;;;;5.53;1.90;;;12.50;94.20;;;;;;5097110;28;20021;-40
2022/05/13 03:15:45;;;;;;;6.30;1.90;;;12.50;94.20;;;;;;5103003;28;20020;-42
2022/05/13 03:18:10;;;;;;;3.15;1.60;;;12.50;94.30;;;;;;5099408;28;20039;-41
2022/05/13 03:20:36;;;;;;;3.55;1.85;;;12.50;94.30;;;;;;5099801;28;20027;-41
2022/05/13 03:23:02;;;;;;;5.45;2.15;;;12.50;94.40;;;;;;5102103;28;20024;-41
2022/05/13 03:25:28;;;;;;;8.00;2.20;;;12.50;94.50;;;;;;5097295;28;20031;-41
2022/05/13 03:27:54;;;;;;;4.35;1.90;;;12.50;94.50;;;;;;5104634;28;20093;-41
2022/05/13 03:30:22;;;;;;;5.47;1.95;;;12.60;94.60;;;;;;5095019;28;20033;-41
2022/05/13 03:32:47;;;;;;;4.90;2.22;;;12.60;94.80;;;;;;5103646;28;20043;-41
2022/05/13 03:35:14;;;;;;;5.47;2.05;;;12.60;94.80;;;;;;5094708;28;20084;-42
2022/05/13 03:37:40;;;;;;;4.80;2.35;;;12.60;94.80;;;;;;5104914;28;20494;-41
2022/05/13 03:40:06;;;;;;;6.72;2.20;;;12.60;94.80;;;;;;5093939;28;20027;-40
2022/05/13 03:42:31;;;;;;;8.38;2.28;;;12.60;94.90;;;;;;5105687;28;20106;-41
2022/05/13 03:44:57;;;;;;;6.63;2.28;;;12.70;95.00;;;;;;5092521;28;20491;-41
2022/05/13 03:47:23;;;;;;;7.30;2.50;;;12.70;95.00;;;;;;5106414;28;20107;-41
2022/05/13 03:49:48;;;;;;;7.22;2.38;;;12.70;95.10;;;;;;5094351;28;20024;-41
2022/05/13 03:52:15;;;;;;;5.38;2.53;;;12.70;95.20;;;;;;5105201;28;20379;-41
2022/05/13 03:54:41;;;;;;;10.07;2.70;;;12.70;95.30;;;;;;5096557;28;20023;-41
2022/05/13 03:57:07;;;;;;;5.07;2.40;;;12.70;95.30;;;;;;5102945;28;20027;-41
2022/05/13 03:59:34;;;;;;;6.25;2.30;;;12.60;95.50;;;;;;5098419;28;20468;-43
2022/05/13 04:02:00;;;;;;;8.57;2.70;;;12.60;95.50;;;;;;5101489;28;20115;-42
2022/05/13 04:04:29;;;;;;;6.45;2.63;;;12.60;95.60;;;;;;5105086;28;20172;-41
2022/05/13 04:09:41;;;;;;;6.78;2.50;;;12.50;95.90;;;;;;5094314;28;20054;-42
2022/05/13 04:17:36;;;;;;;7.55;2.80;;;12.40;96.20;;;;;;5094500;28;20039;-40
2022/05/13 04:20:02;;;;;;;8.27;3.20;;;12.30;96.30;;;;;;5094312;28;20906;-40
2022/05/13 04:22:28;;;;;;;10.13;3.65;;;12.30;96.40;;;;;;5097668;28;20563;-41
2022/05/13 04:24:54;;;;;;;5.88;2.72;;;12.30;96.50;;;;;;5091868;28;20044;-41
2022/05/13 04:27:20;;;;;;;6.07;2.80;;;12.30;96.50;;;;;;5099113;28;20100;-40
2022/05/13 04:29:45;;;;;;;6.65;2.65;;;12.30;96.60;;;;;;5090614;28;20154;-41
2022/05/13 04:32:11;;;;;;;6.82;2.53;;;12.30;96.70;;;;;;5101118;28;20024;-41
2022/05/13 04:34:37;;;;;;;8.00;2.70;;;12.30;96.80;;;;;;5089192;28;20028;-41
2022/05/13 04:37:02;;;;;;;7.82;2.92;;;12.30;96.80;;;;;;5101550;28;20020;-41
2022/05/13 04:39:28;;;;;;;9.32;3.20;;;12.30;96.90;;;;;;5088973;28;20044;-42
2022/05/13 04:44:40;;;;;;;8.05;3.05;;;12.40;97.00;;;;;;5089513;28;20055;-42
2022/05/13 04:48:15;;;;;;;6.22;2.92;;;12.50;97.00;;;;;;5101840;28;20019;-41
2022/05/13 04:49:51;;;;;;;5.72;2.78;;;12.50;97.00;;;;;;5087952;28;20043;-42
2022/05/13 04:52:17;;;;;;;10.48;2.85;;;12.60;97.00;;;;;;5101678;28;20028;-41
2022/05/13 04:54:42;;;;;;;6.65;3.00;;;12.60;97.10;;;;;;5089233;28;20032;-41
2022/05/13 04:57:08;;;;;;;6.60;2.88;;;12.60;97.10;;;;;;5100841;28;20370;-41
2022/05/13 04:59:33;;;;;;;10.63;2.90;;;12.60;97.10;;;;;;5088905;28;20020;-41
2022/05/13 05:01:58;;;;;;;8.88;3.65;;;12.60;97.20;;;;;;5098295;28;20030;-40
2022/05/13 05:04:24;;;;;;;6.53;2.85;;;12.60;97.30;;;;;;5090900;28;20059;-41
2022/05/13 05:06:49;;;;;;;7.38;3.40;;;12.50;97.30;;;;;;5096043;28;20019;-41
2022/05/13 05:09:15;;;;;;;7.50;3.20;;;12.50;97.70;;;;;;5093663;28;20035;-41
2022/05/13 05:11:40;;;;;;;10.98;3.85;;;12.50;97.60;;;;;;5092475;28;20452;-41
2022/05/13 05:14:06;;;;;;;6.93;4.00;;;12.40;97.70;;;;;;5096742;28;20040;-41
2022/05/13 05:16:32;;;;;;;8.00;3.72;;;12.40;97.80;;;;;;5089033;28;20469;-41
2022/05/13 05:18:59;;;;;;;11.18;3.72;;;12.40;97.90;;;;;;5099433;28;20164;-42
2022/05/13 05:21:25;;;;;;;11.32;4.03;;;12.40;98.00;;;;;;5089074;28;20482;-41
2022/05/13 05:23:51;;;;;;;9.65;3.83;;;12.50;98.20;;;;;;5099343;28;20047;-42
2022/05/13 05:26:16;;;;;;;11.25;4.40;;;12.60;98.20;;;;;;5088259;28;20070;-41
2022/05/13 05:28:42;;;;;;;8.25;3.78;;;12.80;98.20;;;;;;5100639;28;20547;-36
2022/05/13 05:31:09;;;;;;;5.53;3.30;;;12.90;98.10;;;;;;5087692;28;20028;-41
2022/05/13 05:33:35;;;;;;;6.63;3.75;;;13.10;98.10;;;;;;5100368;28;20032;-38
2022/05/13 05:36:00;;;;;;;10.20;3.50;;;13.20;98.00;;;;;;5088278;28;20020;-40
2022/05/13 05:38:26;;;;;;;9.73;4.72;;;13.30;98.00;;;;;;5089806;28;20057;-42
2022/05/13 05:40:52;;;;;;;8.52;3.60;;;13.30;98.30;;;;;;5107093;28;20516;-42
2022/05/13 05:43:19;;;;;;;7.88;4.35;;;13.30;98.20;;;;;;5097614;28;20036;-41
2022/05/13 05:45:44;;;;;;;8.10;4.55;;;13.30;98.30;;;;;;5101395;28;20053;-41
2022/05/13 05:48:13;;;;;;;13.95;4.90;;;13.40;98.40;;;;;;5099986;28;20031;-42
2022/05/13 05:50:39;;;;;;;9.32;4.50;;;13.50;98.40;;;;;;5101167;28;20016;-40
2022/05/13 05:53:05;;;;;;;11.30;4.32;;;13.60;98.40;;;;;;5102279;28;20488;-41
2022/05/13 05:58:17;;;;;;;10.20;4.15;;;13.70;98.40;;;;;;5101940;28;20039;-46
2022/05/13 06:00:51;;;;;;;7.47;3.28;;;13.80;98.30;;;;;;5098305;28;20038;-42
2022/05/13 06:03:18;;;;;;;11.40;4.30;;;13.90;98.30;;;;;;5103809;28;20039;-40
2022/05/13 06:05:49;;;;;;;9.63;4.75;;;13.90;98.30;;;;;;5089098;28;20031;-41
2022/05/13 06:08:15;;;;;;;11.50;4.32;;;13.90;98.40;;;;;;5105332;28;20019;-42
2022/05/13 06:10:40;;;;;;;11.20;4.65;;;14.00;98.40;;;;;;5096135;28;20024;-41
2022/05/13 06:13:07;;;;;;;10.82;4.75;;;14.10;98.40;;;;;;5106008;28;20020;-41
2022/05/13 06:15:32;;;;;;;12.70;5.15;;;14.10;98.40;;;;;;5096209;28;20097;-42
2022/05/13 06:17:58;;;;;;;10.73;4.75;;;14.20;98.40;;;;;;5107704;28;20028;-41
2022/05/13 06:20:27;;;;;;;11.13;4.97;;;14.30;98.50;;;;;;5093483;28;20039;-43
2022/05/13 06:22:53;;;;;;;11.00;4.13;;;14.40;98.40;;;;;;5108191;28;20093;-40
2022/05/13 06:25:22;;;;;;;8.50;3.88;;;14.40;98.40;;;;;;5093649;28;20028;-42
2022/05/13 06:27:49;;;;;;;7.72;3.85;;;14.50;98.40;;;;;;5106724;28;20459;-44
2022/05/13 06:30:36;;;;;;;7.20;3.80;;;14.60;98.40;;;;;;5094425;28;20509;-45
2022/05/13 06:33:02;;;;;;;10.38;4.50;;;14.70;98.40;;;;;;5067025;28;20021;-39
2022/05/13 06:35:31;;;;;;;9.30;3.92;;;14.80;98.40;;;;;;5095331;28;20069;-41
2022/05/13 06:37:56;;;;;;;12.23;5.15;;;14.80;98.40;;;;;;5087623;28;20020;-41
2022/05/13 06:40:23;;;;;;;15.07;5.72;;;14.90;98.50;;;;;;5096425;28;20062;-42
2022/05/13 06:42:49;;;;;;;11.60;5.18;;;14.90;98.60;;;;;;5088293;28;20698;-41
2022/05/13 06:45:15;;;;;;;12.18;5.22;;;14.90;98.80;;;;;;5094934;28;20034;-41
2022/05/13 06:47:42;;;;;;;11.68;4.90;;;14.90;99.00;;;;;;5090537;28;20839;-38
2022/05/13 06:50:09;;;;;;;8.57;4.28;;;14.90;98.90;;;;;;5092501;28;20114;-44
2022/05/13 06:52:35;;;;;;;10.07;4.75;;;15.00;98.80;;;;;;5093124;28;20093;-40
2022/05/13 06:55:02;;;;;;;12.57;4.95;;;15.00;98.80;;;;;;5089173;28;20460;-41
2022/05/13 06:57:27;;;;;;;11.73;4.38;;;15.10;98.90;;;;;;5095467;28;20066;-41
2022/05/13 06:59:53;;;;;;;10.25;5.22;;;15.10;98.90;;;;;;5088653;28;20028;-41
2022/05/13 07:02:19;;;;;;;10.35;5.28;;;15.20;98.90;;;;;;5097019;28;20480;-39
2022/05/13 07:04:45;;;;;;;12.07;5.85;;;15.30;98.90;;;;;;5087545;28;20055;-41
2022/05/13 07:07:12;;;;;;;10.93;5.82;;;15.30;98.90;;;;;;5090618;28;20063;-40
2022/05/13 07:09:38;;;;;;;11.00;5.80;;;15.40;98.90;;;;;;5085841;28;20040;-41
2022/05/13 07:12:04;;;;;;;10.80;5.00;;;15.40;98.80;;;;;;5093428;28;20035;-38
2022/05/13 07:14:29;;;;;;;13.48;5.88;;;15.40;98.80;;;;;;5105680;28;20044;-42
2022/05/13 07:16:56;;;;;;;9.95;5.57;;;15.50;98.80;;;;;;5092970;28;20031;-42
2022/05/13 07:19:22;;;;;;;10.95;5.50;;;15.60;98.90;;;;;;5106726;28;20104;-41
2022/05/13 07:21:48;;;;;;;11.63;5.18;;;15.60;98.80;;;;;;5094774;28;20518;-42
2022/05/13 07:24:13;;;;;;;8.65;4.40;;;15.70;98.70;;;;;;5103727;28;20036;-41
2022/05/13 07:26:39;;;;;;;10.70;5.07;;;15.80;98.60;;;;;;5097725;28;20463;-43
2022/05/13 07:29:05;;;;;;;9.63;5.07;;;15.90;98.50;;;;;;5102473;28;20522;-42
2022/05/13 07:31:31;;;;;;;7.80;4.55;;;15.90;98.50;;;;;;5099428;28;20463;-41
2022/05/13 07:33:56;;;;;;;13.00;5.63;;;15.80;98.50;;;;;;5099030;28;20055;-42
2022/05/13 07:36:22;;;;;;;12.30;5.43;;;15.80;98.60;;;;;;5102515;28;20043;-43
2022/05/13 07:41:31;;;;;;;9.48;5.28;;;15.90;98.70;;;;;;5102732;28;20031;-42
2022/05/13 07:43:57;;;;;;;8.18;4.55;;;16.00;98.60;;;;;;5095938;28;20035;-42
2022/05/13 07:46:23;;;;;;;9.18;4.30;;;16.10;98.40;;;;;;5104830;28;20027;-43
2022/05/13 07:48:51;;;;;;;10.40;4.88;;;16.20;98.30;;;;;;5094695;28;20019;-43
2022/05/13 07:51:17;;;;;;;12.40;5.05;;;16.30;98.20;;;;;;5103258;28;20386;-36
2022/05/13 07:53:42;;;;;;;9.68;4.30;;;16.40;98.00;;;;;;5094714;28;20027;-42
2022/05/13 07:56:08;;;;;;;10.18;5.00;;;16.40;98.00;;;;;;5106527;28;20055;-42
2022/05/13 07:58:33;;;;;;;9.63;4.82;;;16.40;97.90;;;;;;5092113;28;20173;-41
2022/05/13 08:00:59;;;;;;;8.75;5.05;;;16.40;97.90;;;;;;5106828;28;20024;-42
2022/05/13 08:03:26;;;;;;;11.95;5.85;;;16.40;97.90;;;;;;5089946;28;20036;-40
2022/05/13 08:05:53;;;;;;;10.88;6.30;;;16.40;97.90;;;;;;5104358;28;20364;-43
2022/05/13 08:08:22;;;;;;;10.00;5.03;;;16.30;97.80;;;;;;5095318;28;20034;-42
2022/05/13 08:10:52;;;;;;;9.55;5.20;;;16.20;97.90;;;;;;5104943;28;20109;-42
2022/05/13 08:13:18;;;;;;;9.13;5.25;;;16.20;97.90;;;;;;5095779;28;20028;-41
2022/05/13 08:15:44;;;;;;;8.27;5.35;;;16.10;98.00;;;;;;5102352;28;20035;-41
2022/05/13 08:18:09;;;;;;;9.68;4.80;;;16.10;98.00;;;;;;5099162;28;20020;-41
2022/05/13 08:20:35;;;;;;;7.65;3.75;;;16.10;97.90;;;;;;5098734;28;20127;-42
2022/05/13 08:23:02;;;;;;;9.57;4.13;;;16.10;97.90;;;;;;5101905;28;20106;-41
2022/05/13 08:25:27;;;;;;;6.05;3.60;;;16.20;97.80;;;;;;5092886;28;20036;-42
2022/05/13 08:27:53;;;;;;;9.98;4.03;;;16.20;97.80;;;;;;5086366;28;20395;-42
2022/05/13 08:30:19;;;;;;;13.73;4.45;;;16.30;97.70;;;;;;5097050;28;20103;-42
2022/05/13 08:32:45;;;;;;;9.23;4.70;;;16.40;97.70;;;;;;5086481;28;20023;-41
2022/05/13 08:35:12;;;;;;;8.10;3.95;;;16.50;97.50;;;;;;5096159;28;20032;-42
2022/05/13 08:37:43;;;;;;;7.50;3.65;;;16.50;97.50;;;;;;5085665;28;20028;-42
2022/05/13 08:40:18;;;;;;;8.73;3.22;;;16.60;97.40;;;;;;5092304;28;20038;-42
2022/05/13 08:42:46;;;;;;;8.18;3.50;;;16.60;97.40;;;;;;5105253;28;20450;-42
2022/05/13 08:45:15;;;;;;;7.43;3.35;;;16.70;97.30;;;;;;5097260;28;20061;-42
2022/05/13 08:47:55;;;;;;;5.80;3.05;;;16.70;97.30;;;;;;5084774;28;20097;-43
2022/05/13 08:50:38;;;;;;;7.00;2.70;;;16.70;97.30;;;;;;5095990;28;20076;-41
2022/05/13 08:53:31;;;;;;;8.25;2.80;;;16.80;97.30;;;;;;5109428;28;20030;-41
2022/05/13 08:56:04;;;;;;;5.82;2.15;;;16.90;96.70;;;;;;5094250;28;20161;-41
2022/05/13 08:58:51;;;;;;;4.43;1.50;;;17.10;95.90;;;;;;5107261;28;20493;-43
2022/05/13 09:01:26;;;;;;;2.90;1.23;;;17.20;95.70;;;;;;5098021;28;20024;-40
2022/05/13 09:04:09;;;;;;;5.13;1.45;;;17.30;95.40;;;;;;5089839;28;20043;-42
2022/05/13 09:06:55;;;;;;;3.65;1.15;;;17.40;95.20;;;;;;5084188;28;20054;-41
2022/05/13 09:09:21;;;;;;;4.10;1.38;;;17.40;94.90;;;;;;5105989;28;20115;-43
2022/05/13 09:11:59;;;;;;;3.80;1.10;;;17.50;94.60;;;;;;5097894;28;20122;-42
2022/05/13 09:14:37;;;;;;;2.25;0.93;;;17.50;94.20;;;;;;5106795;28;20050;-41
2022/05/13 09:17:32;;;;;;;2.13;1.13;;;17.40;93.80;;;;;;5088081;28;20030;-42
2022/05/13 09:20:11;;;;;;;3.00;0.90;;;17.20;93.80;;;;;;5101598;28;20139;-41
2022/05/13 09:22:52;;;;;;;5.55;1.15;;;17.10;93.60;;;;;;5100816;28;20020;-42
2022/05/13 09:25:20;;;;;;;3.25;0.85;;;17.10;93.20;;;;;;5101885;28;20028;-43
2022/05/13 09:27:55;;;;;;;2.83;1.00;;;17.20;93.50;;;;;;5099800;28;20030;-41
2022/05/13 09:30:24;;;;;;;4.65;1.27;;;17.40;93.00;;;;;;5100851;28;20119;-43
2022/05/13 09:32:49;;;;;;;5.72;1.13;;;17.50;92.70;;;;;;5099202;28;20020;-41
2022/05/13 09:35:23;;;;;;;3.05;1.10;;;17.60;92.70;;;;;;5104535;28;20376;-41
2022/05/13 09:37:49;;;;;;;3.63;1.13;;;17.60;92.30;;;;;;5098541;28;20065;-41
2022/05/13 09:40:17;;;;;;;3.50;1.17;;;17.60;92.50;;;;;;5107091;28;20027;-42
2022/05/13 09:42:48;;;;;;;3.33;1.15;;;17.60;92.30;;;;;;5097719;28;20027;-42
2022/05/13 09:45:34;;;;;;;2.60;1.30;;;17.60;92.30;;;;;;5106464;28;20214;-42
2022/05/13 09:47:59;;;;;;;3.92;1.40;;;17.70;92.20;;;;;;5086714;28;20052;-42
2022/05/13 09:50:29;;;;;;;3.42;1.10;;;17.80;92.10;;;;;;5105569;28;20066;-42
2022/05/13 09:53:22;;;;;;;4.63;1.25;;;17.80;91.90;;;;;;5083591;28;20024;-41
2022/05/13 09:55:56;;;;;;;4.03;1.23;;;17.80;92.20;;;;;;5062775;28;20033;-40
2022/05/13 09:58:26;;;;;;;4.43;1.30;;;17.60;91.90;;;;;;5086233;28;20464;-40
2022/05/13 10:00:56;;;;;;;2.97;0.95;;;17.60;92.00;;;;;;5105565;28;20051;-44
2022/05/13 10:03:25;;;;;;;2.60;1.20;;;17.60;92.00;;;;;;5096260;28;20043;-41
2022/05/13 10:05:53;;;;;;;7.68;1.20;;;17.60;91.90;;;;;;5105891;28;20030;-46
2022/05/13 10:08:25;;;;;;;4.82;1.15;;;17.70;91.90;;;;;;5096314;28;20109;-41
2022/05/13 10:13:57;;;;;;;5.35;1.33;;;17.90;91.70;;;;;;5098165;28;20043;-42
2022/05/13 10:16:40;;;;;;;4.22;1.02;;;18.00;91.60;;;;;;5088259;28;20012;-40
2022/05/13 10:19:40;;;;;;;3.15;0.90;;;18.00;91.70;;;;;;5087239;28;20574;-41
2022/05/13 10:22:20;;;;;;;2.78;0.95;;;18.00;91.60;;;;;;5103126;28;20477;-43
2022/05/13 10:24:57;;;;;;;2.95;1.05;;;18.10;91.60;;;;;;5101385;28;20074;-41
2022/05/13 10:27:55;;;;;;;3.35;1.40;;;18.20;91.40;;;;;;5101134;28;20020;-43
2022/05/13 10:30:37;;;;;;;3.30;1.20;;;18.10;91.20;;;;;;5105206;28;20141;-42
2022/05/13 10:33:08;;;;;;;3.28;1.00;;;18.10;91.30;;;;;;5097588;28;20024;-43
2022/05/13 10:35:48;;;;;;;3.05;1.20;;;18.10;91.00;;;;;;5104565;28;20035;-43
2022/05/13 10:38:20;;;;;;;3.40;0.80;;;18.10;90.70;;;;;;5097328;28;20044;-43
2022/05/13 10:40:47;;;;;;;1.80;0.80;;;18.00;90.80;;;;;;5104748;28;20032;-42
2022/05/13 10:43:19;;;;;;;3.92;0.90;;;18.00;90.90;;;;;;5098294;28;20085;-42
2022/05/13 10:45:46;;;;;;;3.67;1.10;;;18.10;90.80;;;;;;5103194;28;20031;-42
2022/05/13 10:48:30;;;;;;;3.67;1.10;;;18.20;90.50;;;;;;5099429;28;20035;-42
2022/05/13 10:51:08;;;;;;;3.85;1.00;;;18.30;89.10;;;;;;5104047;28;20069;-41
2022/05/13 10:53:55;;;;;;;3.22;1.08;;;18.40;89.20;;;;;;5097956;28;20119;-40
2022/05/13 10:56:34;;;;;;;3.03;1.00;;;18.60;90.00;;;;;;5054096;28;20547;-44
2022/05/13 10:59:24;;;;;;;2.22;0.80;;;18.80;89.20;;;;;;5096494;28;20024;-43
2022/05/13 11:02:29;;;;;;;2.10;0.80;;;19.00;89.00;;;;;;5066247;28;20036;-42
2022/05/13 11:05:10;;;;;;;2.28;0.98;;;19.10;88.90;;;;;;5092628;28;20059;-39
2022/05/13 11:08:09;;;;;;;4.07;0.95;;;19.10;88.20;;;;;;5092716;28;20111;-39
2022/05/13 11:10:54;;;;;;;2.97;1.08;;;18.90;88.00;;;;;;5096206;28;20122;-42
2022/05/13 11:13:52;;;;;;;3.80;1.15;;;18.90;88.10;;;;;;5087560;28;20016;-42
2022/05/13 11:16:36;;;;;;;2.65;0.77;;;18.90;87.90;;;;;;5090902;28;20028;-41
2022/05/13 11:19:15;;;;;;;2.70;0.90;;;18.90;87.30;;;;;;5101041;28;20012;-42
2022/05/13 11:22:03;;;;;;;1.88;1.02;;;18.90;87.20;;;;;;5100180;28;20035;-42
2022/05/13 11:27:41;;;;;;;2.97;1.05;;;19.20;86.30;;;;;;5106144;28;20109;-42
2022/05/13 11:30:11;;;;;;;2.90;1.02;;;19.20;86.60;;;;;;5094464;28;20063;-42
2022/05/13 11:32:48;;;;;;;3.88;1.20;;;19.30;85.30;;;;;;5104948;28;20039;-42
2022/05/13 11:35:17;;;;;;;3.13;0.85;;;19.30;85.10;;;;;;5095279;28;20530;-42
2022/05/13 11:37:45;;;;;;;6.30;1.27;;;19.30;85.10;;;;;;5103475;28;20037;-42
2022/05/13 11:40:23;;;;;;;1.90;0.93;;;19.30;85.00;;;;;;5097747;28;20115;-42
2022/05/13 11:43:20;;;;;;;3.63;1.23;;;19.30;85.00;;;;;;5103702;28;20062;-41
2022/05/13 11:46:11;;;;;;;1.95;0.90;;;19.40;84.50;;;;;;5093509;28;20048;-42
2022/05/13 11:48:42;;;;;;;3.00;0.80;;;19.40;84.30;;;;;;5065098;28;20226;-43
2022/05/13 11:51:17;;;;;;;5.60;1.52;;;19.40;84.80;;;;;;5095894;28;20028;-43
2022/05/13 11:54:00;;;;;;;1.50;0.70;;;19.40;85.00;;;;;;5086081;28;20655;-41
2022/05/13 11:56:25;;;;;;;4.28;1.35;;;19.50;85.20;;;;;;5097601;28;20031;-42
2022/05/13 11:58:53;;;;;;;3.00;0.90;;;19.50;85.00;;;;;;5085037;28;20028;-43
2022/05/13 12:01:45;;;;;;;3.92;1.00;;;19.60;85.00;;;;;;5098066;28;20164;-43
2022/05/13 12:04:14;;;;;;;3.85;0.80;;;19.60;84.50;;;;;;5064768;28;20341;-42
2022/05/13 12:06:51;;;;;;;2.30;0.80;;;19.60;84.70;;;;;;5096449;28;20031;-42
2022/05/13 12:09:28;;;;;;;2.90;1.02;;;19.60;84.00;;;;;;5105928;28;20039;-42
2022/05/13 12:12:27;;;;;;;2.78;0.90;;;19.50;83.80;;;;;;5092534;28;20032;-41
2022/05/13 12:15:11;;;;;;;3.13;1.10;;;19.50;83.80;;;;;;5105881;28;20111;-40
2022/05/13 12:18:02;;;;;;;3.10;0.90;;;19.50;83.80;;;;;;5094140;28;20024;-41
2022/05/13 12:20:46;;;;;;;3.22;1.00;;;19.60;84.10;;;;;;5086207;28;20032;-43
2022/05/13 12:23:22;;;;;;;2.85;1.02;;;19.70;83.70;;;;;;5086817;28;20104;-41
2022/05/13 12:26:00;;;;;;;4.88;0.98;;;19.70;83.10;;;;;;5107145;28;20789;-40
2022/05/13 12:28:30;;;;;;;3.22;0.90;;;19.80;83.50;;;;;;5089215;28;20031;-42
2022/05/13 12:30:59;;;;;;;2.50;0.90;;;19.90;83.40;;;;;;5108918;28;20036;-41
2022/05/13 12:33:25;;;;;;;3.10;1.38;;;19.80;82.60;;;;;;5096962;28;20020;-41
2022/05/13 12:39:00;;;;;;;4.30;1.52;;;19.60;82.80;;;;;;5088204;28;20123;-40
2022/05/13 12:41:41;;;;;;;1.23;0.77;;;19.40;82.90;;;;;;5106433;28;20050;-42
2022/05/13 12:44:30;;;;;;;1.75;0.80;;;19.50;83.30;;;;;;5100991;28;20069;-42
2022/05/13 12:47:14;;;;;;;2.00;0.70;;;19.50;82.60;;;;;;5103623;28;20020;-41
2022/05/13 12:49:49;;;;;;;3.65;1.30;;;19.60;82.10;;;;;;5103544;28;20419;-41
2022/05/13 12:52:41;;;;;;;3.63;1.00;;;19.70;82.30;;;;;;5102914;28;20144;-41
2022/05/13 12:55:25;;;;;;;2.70;0.88;;;19.90;81.40;;;;;;5104391;28;20027;-41
2022/05/13 12:57:54;;;;;;;2.10;1.00;;;19.90;81.00;;;;;;5099453;28;20518;-42
2022/05/13 13:00:24;;;;;;;3.08;1.13;;;19.90;80.80;;;;;;5105616;28;20043;-41
2022/05/13 13:02:54;;;;;;;2.72;0.80;;;19.90;81.00;;;;;;5100996;28;20066;-43
2022/05/13 13:05:32;;;;;;;4.88;1.05;;;20.00;80.30;;;;;;5104782;28;20036;-44
2022/05/13 13:08:16;;;;;;;4.22;1.20;;;20.10;79.40;;;;;;5100277;28;20024;-44
2022/05/13 13:10:57;;;;;;;2.05;0.80;;;20.00;78.80;;;;;;5106828;28;20023;-41
2022/05/13 13:13:49;;;;;;;2.35;0.95;;;19.90;79.10;;;;;;5098992;28;20031;-44
2022/05/13 13:16:23;;;;;;;1.65;1.00;;;19.90;79.40;;;;;;5067654;28;20047;-42
2022/05/13 13:19:12;;;;;;;4.82;1.15;;;19.90;78.50;;;;;;5096045;28;20057;-42
2022/05/13 13:21:39;;;;;;;1.60;0.77;;;19.80;78.70;;;;;;5067953;28;20528;-41
2022/05/13 13:24:25;;;;;;;4.75;1.10;;;19.90;78.90;;;;;;5096830;28;20495;-42
2022/05/13 13:26:51;;;;;;;3.65;1.05;;;20.00;78.40;;;;;;5067865;28;20571;-43
2022/05/13 13:29:28;;;;;;;2.97;1.27;;;20.00;78.30;;;;;;5096930;28;20023;-42